METAR Data
IDs: Format: Raw Decoded Include TAF

Data at: 0803 UTC 07 Dec 2021

KSET 070754Z AUTO 04008KT 10SM CLR M03/M14 A3033 RMK AO2 SLP275 T10331139
No TAF found for KSET

KSTL 070751Z 04008KT 10SM OVC170 M03/M12 A3031 RMK AO2 SLP273 T10281122

KSTL 070520Z 0706/0812 VRB03KT P6SM BKN200
  FM071500 14007KT P6SM OVC100